createdAt,value
2018-05-24T00:00:44.405Z,10.63
2018-05-24T00:03:11.868Z,9.50
2018-05-24T00:05:39.334Z,10.37
2018-05-24T00:08:06.797Z,10.53
2018-05-24T00:10:34.345Z,10.83
2018-05-24T00:13:01.804Z,10.20
2018-05-24T00:15:29.376Z,10.70
2018-05-24T00:17:56.820Z,10.17
2018-05-24T00:20:24.298Z,9.53
2018-05-24T00:22:51.792Z,10.23
2018-05-24T00:25:19.252Z,10.83
2018-05-24T00:27:46.791Z,9.93
2018-05-24T00:30:14.244Z,9.57
2018-05-24T00:32:41.821Z,10.70
2018-05-24T00:35:09.270Z,11.07
2018-05-24T00:37:36.738Z,10.37
2018-05-24T00:40:04.227Z,10.37
2018-05-24T00:42:31.675Z,10.83
2018-05-24T00:44:59.120Z,11.17
2018-05-24T00:47:26.583Z,10.57
2018-05-24T00:49:54.048Z,10.80
2018-05-24T00:52:21.513Z,10.60
2018-05-24T00:54:48.976Z,10.53
2018-05-24T00:57:16.537Z,11.37
2018-05-24T00:59:43.989Z,12.13
2018-05-24T01:02:11.566Z,12.53
2018-05-24T01:04:39.017Z,11.63
2018-05-24T01:07:06.494Z,11.53
2018-05-24T01:09:33.952Z,11.23
2018-05-24T01:12:01.416Z,11.80
2018-05-24T01:14:28.885Z,12.30
2018-05-24T01:16:56.361Z,12.30
2018-05-24T01:19:23.818Z,11.73
2018-05-24T01:21:51.289Z,11.97
2018-05-24T01:24:18.748Z,12.03
2018-05-24T01:26:46.209Z,11.83
2018-05-24T01:29:13.759Z,11.87
2018-05-24T01:31:41.220Z,12.60
2018-05-24T01:34:08.669Z,12.63
2018-05-24T01:37:01.927Z,12.63
2018-05-24T01:39:29.493Z,11.50
2018-05-24T01:41:56.954Z,12.90
2018-05-24T01:44:24.432Z,13.00
2018-05-24T01:46:51.904Z,12.50
2018-05-24T01:49:19.452Z,12.27
2018-05-24T01:51:46.905Z,12.10
2018-05-24T01:54:14.378Z,11.73
2018-05-24T01:56:41.853Z,12.17
2018-05-24T01:59:09.400Z,12.47
2018-05-24T02:01:36.860Z,11.53
2018-05-24T02:04:04.342Z,11.77
2018-05-24T02:06:31.793Z,11.13
2018-05-24T02:08:59.241Z,12.17
2018-05-24T02:11:26.698Z,12.27
2018-05-24T02:13:54.177Z,11.33
2018-05-24T02:16:21.621Z,12.20
2018-05-24T02:18:49.101Z,11.30
2018-05-24T02:21:16.550Z,11.30
2018-05-24T02:23:44.035Z,12.07
2018-05-24T02:26:11.462Z,11.73
2018-05-24T02:28:38.925Z,12.73
2018-05-24T02:31:06.399Z,11.00
2018-05-24T02:33:33.858Z,11.83
2018-05-24T02:36:01.510Z,11.20
2018-05-24T02:38:28.813Z,11.03
2018-05-24T02:40:56.365Z,11.70
2018-05-24T02:43:23.836Z,11.43
2018-05-24T02:45:51.289Z,11.20
2018-05-24T02:48:18.859Z,9.80
2018-05-24T02:50:46.327Z,9.57
2018-05-24T02:53:13.793Z,10.40
2018-05-24T02:55:41.349Z,10.13
2018-05-24T02:58:08.910Z,10.37
2018-05-24T03:00:36.354Z,10.10
2018-05-24T03:03:03.808Z,10.27
2018-05-24T03:05:31.299Z,11.23
2018-05-24T03:07:58.760Z,10.90
2018-05-24T03:10:26.226Z,10.80
2018-05-24T03:12:53.686Z,11.10
2018-05-24T03:15:21.153Z,12.07
2018-05-24T03:17:48.715Z,11.17
2018-05-24T03:20:16.181Z,11.20
2018-05-24T03:22:43.666Z,11.20
2018-05-24T03:25:11.129Z,10.73
2018-05-24T03:27:38.581Z,10.40
2018-05-24T03:30:06.053Z,10.07
2018-05-24T03:32:33.537Z,10.90
2018-05-24T03:35:01.783Z,10.07
2018-05-24T03:37:29.244Z,11.47
2018-05-24T03:39:56.702Z,10.70
2018-05-24T03:42:24.161Z,10.83
2018-05-24T03:44:51.632Z,12.60
2018-05-24T03:47:19.182Z,12.43
2018-05-24T03:49:46.661Z,12.67
2018-05-24T03:52:14.123Z,14.10
2018-05-24T03:54:41.669Z,13.30
2018-05-24T03:57:09.136Z,13.17
2018-05-24T03:59:59.125Z,13.57
2018-05-24T04:02:38.396Z,13.00
2018-05-24T04:05:06.727Z,12.60
2018-05-24T04:07:34.294Z,13.47
2018-05-24T04:10:01.857Z,12.50
2018-05-24T04:12:29.300Z,12.63
2018-05-24T04:14:56.769Z,13.23
2018-05-24T04:17:24.249Z,13.10
2018-05-24T04:19:51.695Z,13.53
2018-05-24T04:22:19.175Z,12.37
2018-05-24T04:24:46.733Z,12.23
2018-05-24T04:27:14.301Z,12.10
2018-05-24T04:29:41.740Z,11.80
2018-05-24T04:32:09.206Z,11.00
2018-05-24T04:34:36.685Z,11.53
2018-05-24T04:37:04.152Z,12.20
2018-05-24T04:39:31.621Z,12.63
2018-05-24T04:41:59.168Z,11.90
2018-05-24T04:44:26.649Z,13.70
2018-05-24T04:46:57.101Z,14.13
2018-05-24T04:49:24.569Z,13.23
2018-05-24T04:51:52.822Z,13.33
2018-05-24T04:54:20.297Z,14.73
2018-05-24T04:56:47.772Z,15.93
2018-05-24T04:59:15.275Z,14.67
2018-05-24T05:01:42.854Z,13.73
2018-05-24T05:04:10.243Z,14.87
2018-05-24T05:06:37.720Z,15.17
2018-05-24T05:09:06.066Z,15.17
2018-05-24T05:11:33.521Z,16.33
2018-05-24T05:14:00.992Z,16.47
2018-05-24T05:16:28.448Z,15.93
2018-05-24T05:18:55.934Z,16.37
2018-05-24T05:21:23.389Z,16.10
2018-05-24T05:23:50.945Z,16.93
2018-05-24T05:26:18.413Z,16.90
2018-05-24T05:28:45.862Z,14.87
2018-05-24T05:31:13.326Z,16.00
2018-05-24T05:33:40.816Z,16.70
2018-05-24T05:36:08.277Z,17.87
2018-05-24T05:38:35.753Z,18.00
2018-05-24T05:41:03.218Z,16.60
2018-05-24T05:43:30.762Z,18.27
2018-05-24T05:45:58.211Z,17.17
2018-05-24T05:48:25.687Z,19.00
2018-05-24T05:50:53.129Z,18.20
2018-05-24T05:53:20.609Z,18.17
2018-05-24T05:55:48.069Z,18.53
2018-05-24T05:58:15.539Z,18.97
2018-05-24T06:00:42.989Z,17.23
2018-05-24T06:03:10.469Z,17.43
2018-05-24T06:05:38.681Z,18.20
2018-05-24T06:08:06.913Z,18.50
2018-05-24T06:10:34.369Z,16.17
2018-05-24T06:13:01.937Z,18.03
2018-05-24T06:15:29.430Z,17.80
2018-05-24T06:17:56.969Z,19.90
2018-05-24T06:20:24.424Z,19.33
2018-05-24T06:22:51.905Z,18.93
2018-05-24T06:25:19.376Z,20.20
2018-05-24T06:27:46.847Z,19.07
2018-05-24T06:30:14.381Z,18.50
2018-05-24T06:32:41.849Z,19.50
2018-05-24T06:35:09.328Z,19.47
2018-05-24T06:37:36.764Z,19.70
2018-05-24T06:40:04.246Z,19.73
2018-05-24T06:42:31.689Z,21.10
2018-05-24T06:44:59.150Z,19.43
2018-05-24T06:47:26.613Z,18.77
2018-05-24T06:49:54.185Z,21.00
2018-05-24T06:52:21.649Z,19.40
2018-05-24T06:54:49.473Z,21.10
2018-05-24T06:57:17.684Z,19.67
2018-05-24T06:59:45.161Z,19.67
2018-05-24T07:02:12.630Z,21.07
2018-05-24T07:04:40.081Z,20.10
2018-05-24T07:07:07.549Z,20.77
2018-05-24T07:09:35.014Z,20.70
2018-05-24T07:12:02.479Z,21.00
2018-05-24T07:14:29.917Z,19.87
2018-05-24T07:16:57.392Z,23.17
2018-05-24T07:19:24.957Z,23.50
2018-05-24T07:21:52.432Z,20.70
2018-05-24T07:24:19.913Z,19.67
2018-05-24T07:26:47.393Z,19.90
2018-05-24T07:29:15.617Z,23.00
2018-05-24T07:31:43.085Z,23.20
2018-05-24T07:34:10.537Z,22.67
2018-05-24T07:36:38.017Z,22.07
2018-05-24T07:39:05.489Z,21.70
2018-05-24T07:41:33.044Z,22.07
2018-05-24T07:44:00.535Z,24.37
2018-05-24T07:46:28.010Z,22.33
2018-05-24T07:48:56.223Z,19.80
2018-05-24T07:51:23.695Z,22.23
2018-05-24T07:53:51.141Z,21.63
2018-05-24T07:56:18.610Z,21.90
2018-05-24T07:58:46.104Z,20.73
2018-05-24T08:01:13.577Z,22.63
2018-05-24T08:03:41.027Z,22.43
2018-05-24T08:06:08.594Z,21.40
2018-05-24T08:08:36.099Z,21.50
2018-05-24T08:11:03.525Z,20.80
2018-05-24T08:13:30.972Z,21.27
2018-05-24T08:15:58.440Z,21.33
2018-05-24T08:18:25.912Z,19.03
2018-05-24T08:20:53.381Z,20.40
2018-05-24T08:23:20.855Z,19.10
2018-05-24T08:25:48.323Z,19.37
2018-05-24T08:28:15.779Z,18.47
2018-05-24T08:30:43.246Z,19.07
2018-05-24T08:33:10.705Z,17.37
2018-05-24T08:35:38.171Z,15.17
2018-05-24T08:38:05.702Z,17.00
2018-05-24T08:40:33.256Z,18.07
2018-05-24T08:43:00.641Z,17.33
2018-05-24T08:45:28.097Z,16.43
2018-05-24T08:47:55.653Z,19.17
2018-05-24T08:50:23.105Z,17.30
2018-05-24T08:52:50.568Z,16.43
2018-05-24T08:55:18.023Z,16.83
2018-05-24T08:57:45.513Z,16.83
2018-05-24T09:00:13.064Z,17.87
2018-05-24T09:02:40.641Z,15.57
2018-05-24T09:05:08.197Z,15.70
2018-05-24T09:07:35.660Z,14.60
2018-05-24T09:10:03.128Z,13.33
2018-05-24T09:12:30.685Z,12.80
2018-05-24T09:14:58.146Z,12.50
2018-05-24T09:17:26.027Z,12.43
2018-05-24T09:19:53.585Z,13.93
2018-05-24T09:22:21.039Z,13.03
2018-05-24T09:24:48.524Z,11.70
2018-05-24T09:27:15.968Z,12.00
2018-05-24T09:29:43.436Z,10.87
2018-05-24T09:32:10.891Z,10.73
2018-05-24T09:34:38.354Z,10.90
2018-05-24T09:37:05.829Z,11.67
2018-05-24T09:39:33.388Z,10.23
2018-05-24T09:42:00.842Z,10.43
2018-05-24T09:44:28.396Z,10.70
2018-05-24T09:46:55.849Z,10.17
2018-05-24T09:49:23.345Z,11.57
2018-05-24T09:51:50.797Z,10.97
2018-05-24T09:54:18.385Z,9.73
2018-05-24T09:56:45.829Z,12.27
2018-05-24T09:59:13.401Z,9.63
2018-05-24T10:01:41.474Z,9.53
2018-05-24T10:04:08.955Z,9.60
2018-05-24T10:06:36.506Z,7.80
2018-05-24T10:09:03.970Z,6.87
2018-05-24T10:11:31.533Z,6.37
2018-05-24T10:13:58.994Z,5.20
2018-05-24T10:16:26.505Z,4.73
2018-05-24T10:18:53.922Z,9.50
2018-05-24T10:21:21.372Z,10.30
2018-05-24T10:23:48.828Z,11.20
2018-05-24T10:26:16.300Z,12.67
2018-05-24T10:28:43.764Z,12.60
2018-05-24T10:31:11.241Z,13.27
2018-05-24T10:33:38.689Z,13.57
2018-05-24T10:36:06.254Z,13.90
2018-05-24T10:38:33.730Z,14.20
2018-05-24T10:41:01.177Z,13.83
2018-05-24T10:43:28.641Z,12.40
2018-05-24T10:45:56.132Z,14.30
2018-05-24T10:48:23.591Z,13.37
2018-05-24T10:50:51.145Z,15.37
2018-05-24T10:53:18.593Z,14.57
2018-05-24T10:55:46.053Z,13.13
2018-05-24T10:58:13.509Z,13.40
2018-05-24T11:00:40.991Z,11.83
2018-05-24T11:03:08.562Z,10.27
2018-05-24T11:05:35.885Z,10.90
2018-05-24T11:08:03.348Z,10.47
2018-05-24T11:10:30.833Z,8.27
2018-05-24T11:12:58.272Z,9.07
2018-05-24T11:15:25.757Z,9.13
2018-05-24T11:17:53.228Z,8.17
2018-05-24T11:20:20.700Z,7.13
2018-05-24T11:22:48.147Z,6.27
2018-05-24T11:25:15.745Z,4.73
2018-05-24T11:27:43.173Z,5.47
2018-05-24T11:30:10.633Z,6.20
2018-05-24T11:32:38.205Z,7.07
2018-05-24T11:35:05.764Z,5.27
2018-05-24T11:37:33.338Z,5.13
2018-05-24T11:40:00.811Z,4.50
2018-05-24T11:42:28.250Z,4.13
2018-05-24T11:44:55.721Z,4.60
2018-05-24T11:47:23.173Z,4.70
2018-05-24T11:49:50.650Z,4.40
2018-05-24T11:52:18.107Z,4.27
2018-05-24T11:54:45.558Z,4.43
2018-05-24T11:57:13.013Z,4.00
2018-05-24T11:59:40.548Z,5.07
2018-05-24T12:02:08.551Z,4.67
2018-05-24T12:04:36.046Z,4.30
2018-05-24T12:07:03.621Z,4.20
2018-05-24T12:09:31.289Z,4.40
2018-05-24T12:12:00.429Z,4.57
2018-05-24T12:14:27.881Z,4.93
2018-05-24T12:16:55.393Z,4.57
2018-05-24T12:19:22.868Z,4.40
2018-05-24T12:21:50.420Z,4.10
2018-05-24T12:24:17.866Z,4.13
2018-05-24T12:26:45.700Z,4.80
2018-05-24T12:29:14.010Z,5.27
2018-05-24T12:31:41.389Z,5.60
2018-05-24T12:34:08.860Z,5.33
2018-05-24T12:36:36.318Z,4.53
2018-05-24T12:39:03.786Z,4.87
2018-05-24T12:41:31.275Z,4.83
2018-05-24T12:43:58.678Z,4.80
2018-05-24T12:46:26.173Z,4.77
2018-05-24T12:48:53.665Z,4.97
2018-05-24T12:51:21.197Z,5.23
2018-05-24T12:53:48.631Z,4.43
2018-05-24T12:56:16.125Z,4.73
2018-05-24T12:58:44.403Z,4.47
2018-05-24T13:01:11.875Z,4.57
2018-05-24T13:03:39.430Z,4.30
2018-05-24T13:06:06.868Z,4.07
2018-05-24T13:08:34.323Z,4.90
2018-05-24T13:11:01.781Z,4.20
2018-05-24T13:13:29.859Z,5.37
2018-05-24T13:15:57.376Z,4.23
2018-05-24T13:18:24.825Z,4.17
2018-05-24T13:20:52.280Z,3.83
2018-05-24T13:23:19.749Z,3.97
2018-05-24T13:25:47.315Z,4.20
2018-05-24T13:28:14.782Z,4.27
2018-05-24T13:30:42.213Z,3.70
2018-05-24T13:33:09.689Z,4.20
2018-05-24T13:35:37.127Z,3.87
2018-05-24T13:38:04.617Z,3.30
2018-05-24T13:40:32.174Z,3.57
2018-05-24T13:42:59.556Z,3.83
2018-05-24T13:45:27.105Z,3.93
2018-05-24T13:47:54.572Z,3.30
2018-05-24T13:50:22.129Z,3.83
2018-05-24T13:52:49.610Z,3.80
2018-05-24T13:55:17.124Z,4.47
2018-05-24T13:57:44.594Z,4.20
2018-05-24T14:00:12.095Z,4.00
2018-05-24T14:02:39.550Z,3.20
2018-05-24T14:05:07.113Z,3.80
2018-05-24T14:07:34.585Z,5.57
2018-05-24T14:10:02.054Z,4.80
2018-05-24T14:12:29.612Z,5.17
2018-05-24T14:14:57.076Z,5.30
2018-05-24T14:17:24.564Z,4.87
2018-05-24T14:19:52.008Z,4.40
2018-05-24T14:22:19.465Z,5.00
2018-05-24T14:24:46.912Z,4.90
2018-05-24T14:27:14.481Z,5.57
2018-05-24T14:29:41.926Z,5.43
2018-05-24T14:32:09.405Z,5.20
2018-05-24T14:34:36.879Z,5.40
2018-05-24T14:37:05.096Z,6.03
2018-05-24T14:39:33.429Z,6.27
2018-05-24T14:42:00.891Z,6.13
2018-05-24T14:44:28.325Z,6.33
2018-05-24T14:46:55.851Z,5.77
2018-05-24T14:49:23.381Z,6.03
2018-05-24T14:51:50.944Z,6.67
2018-05-24T14:54:18.409Z,7.47
2018-05-24T14:56:45.870Z,7.53
2018-05-24T14:59:13.369Z,8.97
2018-05-24T15:01:40.799Z,10.77
2018-05-24T15:04:08.265Z,9.43
2018-05-24T15:06:35.725Z,9.53
2018-05-24T15:09:03.202Z,10.87
2018-05-24T15:11:30.676Z,10.40
2018-05-24T15:13:58.120Z,11.20
2018-05-24T15:16:25.678Z,12.20
2018-05-24T15:18:53.136Z,11.87
2018-05-24T15:21:20.600Z,12.43
2018-05-24T15:23:48.172Z,12.80
2018-05-24T15:26:15.632Z,13.97
2018-05-24T15:28:43.101Z,13.87
2018-05-24T15:31:10.653Z,14.37
2018-05-24T15:33:38.220Z,14.90
2018-05-24T15:36:05.779Z,14.67
2018-05-24T15:38:33.223Z,14.07
2018-05-24T15:41:00.693Z,13.60
2018-05-24T15:43:28.141Z,14.00
2018-05-24T15:45:55.621Z,13.83
2018-05-24T15:48:23.073Z,13.10
2018-05-24T15:50:50.521Z,14.73
2018-05-24T15:53:17.995Z,14.17
2018-05-24T15:55:45.916Z,14.10
2018-05-24T15:58:13.373Z,12.83
2018-05-24T16:00:41.022Z,13.37
2018-05-24T16:03:08.488Z,13.70
2018-05-24T16:05:36.049Z,14.07
2018-05-24T16:08:04.294Z,13.33
2018-05-24T16:10:32.497Z,11.93
2018-05-24T16:12:59.973Z,11.13
2018-05-24T16:15:27.453Z,10.43
2018-05-24T16:17:54.892Z,9.20
2018-05-24T16:20:22.357Z,9.03
2018-05-24T16:22:49.809Z,9.03
2018-05-24T16:25:17.265Z,8.70
2018-05-24T16:27:44.770Z,8.37
2018-05-24T16:30:12.204Z,7.77
2018-05-24T16:32:39.685Z,8.63
2018-05-24T16:35:07.233Z,8.07
2018-05-24T16:37:34.701Z,8.67
2018-05-24T16:40:02.166Z,8.60
2018-05-24T16:42:29.613Z,8.00
2018-05-24T16:44:57.094Z,8.53
2018-05-24T16:47:24.551Z,8.23
2018-05-24T16:49:52.010Z,8.43
2018-05-24T16:52:19.567Z,7.63
2018-05-24T16:54:47.059Z,8.63
2018-05-24T16:57:14.530Z,8.80
2018-05-24T16:59:41.972Z,8.60
2018-05-24T17:02:09.432Z,8.50
2018-05-24T17:04:36.888Z,8.30
2018-05-24T17:07:04.349Z,7.60
2018-05-24T17:09:31.792Z,6.93
2018-05-24T17:11:59.254Z,7.63
2018-05-24T17:14:26.723Z,8.73
2018-05-24T17:16:54.178Z,7.50
2018-05-24T17:19:21.669Z,7.57
2018-05-24T17:21:49.333Z,8.00
2018-05-24T17:24:16.892Z,7.50
2018-05-24T17:26:44.365Z,7.40
2018-05-24T17:29:11.834Z,7.20
2018-05-24T17:31:39.387Z,6.97
2018-05-24T17:34:06.860Z,6.57
2018-05-24T17:36:34.326Z,7.40
2018-05-24T17:39:01.773Z,7.70
2018-05-24T17:41:30.152Z,7.50
2018-05-24T17:43:57.629Z,7.97
2018-05-24T17:46:25.076Z,8.33
2018-05-24T17:48:52.546Z,8.67
2018-05-24T17:51:20.001Z,8.13
2018-05-24T17:53:47.441Z,7.63
2018-05-24T17:56:14.889Z,7.53
2018-05-24T17:58:42.375Z,7.57
2018-05-24T18:01:09.843Z,6.87
2018-05-24T18:03:37.303Z,7.87
2018-05-24T18:06:04.793Z,8.60
2018-05-24T18:08:32.263Z,8.00
2018-05-24T18:10:59.709Z,8.03
2018-05-24T18:13:28.108Z,8.23
2018-05-24T18:15:55.654Z,8.70
2018-05-24T18:18:23.129Z,8.30
2018-05-24T18:20:50.679Z,7.60
2018-05-24T18:23:18.142Z,7.40
2018-05-24T18:25:45.595Z,7.60
2018-05-24T18:28:13.057Z,7.80
2018-05-24T18:30:40.508Z,8.47
2018-05-24T18:33:07.966Z,8.10
2018-05-24T18:35:35.535Z,7.73
2018-05-24T18:38:03.019Z,7.40
2018-05-24T18:40:30.490Z,7.57
2018-05-24T18:42:58.021Z,7.40
2018-05-24T18:45:25.393Z,7.57
2018-05-24T18:47:52.875Z,7.93
2018-05-24T18:50:20.325Z,7.47
2018-05-24T18:52:47.798Z,7.10
2018-05-24T18:55:15.256Z,6.87
2018-05-24T18:57:42.697Z,7.00
2018-05-24T19:00:10.161Z,6.60
2018-05-24T19:02:37.633Z,6.63
2018-05-24T19:05:05.104Z,6.47
2018-05-24T19:07:32.573Z,5.97
2018-05-24T19:10:00.040Z,6.20
2018-05-24T19:12:27.498Z,4.87
2018-05-24T19:14:55.058Z,4.33
2018-05-24T19:17:23.262Z,3.83
2018-05-24T19:19:50.718Z,4.43
2018-05-24T19:22:18.449Z,4.00
2018-05-24T19:24:45.899Z,4.13
2018-05-24T19:27:13.372Z,4.10
2018-05-24T19:29:40.857Z,4.07
2018-05-24T19:32:08.324Z,3.50
2018-05-24T19:34:35.774Z,3.53
2018-05-24T19:37:03.237Z,4.30
2018-05-24T19:39:30.709Z,3.90
2018-05-24T19:41:58.274Z,3.60
2018-05-24T19:44:25.832Z,3.77
2018-05-24T19:46:53.277Z,3.90
2018-05-24T19:49:20.745Z,3.73
2018-05-24T19:51:48.189Z,3.80
2018-05-24T19:54:15.645Z,3.43
2018-05-24T19:56:43.887Z,3.33
2018-05-24T19:59:11.436Z,3.90
2018-05-24T20:01:38.898Z,3.43
2018-05-24T20:04:06.359Z,4.00
2018-05-24T20:06:33.799Z,3.90
2018-05-24T20:09:01.281Z,4.30
2018-05-24T20:11:28.747Z,3.90
2018-05-24T20:13:56.207Z,4.90
2018-05-24T20:16:23.677Z,4.40
2018-05-24T20:18:51.137Z,4.77
2018-05-24T20:21:18.597Z,6.00
2018-05-24T20:23:46.070Z,5.23
2018-05-24T20:26:13.522Z,4.80
2018-05-24T20:28:41.082Z,4.20
2018-05-24T20:31:08.546Z,4.57
2018-05-24T20:33:36.351Z,5.23
2018-05-24T20:36:03.878Z,4.90
2018-05-24T20:38:31.325Z,4.53
2018-05-24T20:40:58.772Z,5.10
2018-05-24T20:43:26.244Z,5.10
2018-05-24T20:45:53.677Z,5.00
2018-05-24T20:48:21.885Z,4.90
2018-05-24T20:50:49.340Z,5.80
2018-05-24T20:53:16.785Z,5.63
2018-05-24T20:55:45.111Z,5.37
2018-05-24T20:58:12.566Z,5.47
2018-05-24T21:00:40.044Z,5.40
2018-05-24T21:03:07.525Z,5.47
2018-05-24T21:05:34.993Z,5.77
2018-05-24T21:08:02.462Z,5.13
2018-05-24T21:10:29.898Z,5.00
2018-05-24T21:12:57.458Z,5.30
2018-05-24T21:15:24.895Z,5.00
2018-05-24T21:17:52.355Z,4.97
2018-05-24T21:20:19.827Z,4.70
2018-05-24T21:22:47.275Z,4.50
2018-05-24T21:25:14.743Z,4.97
2018-05-24T21:27:42.178Z,4.13
2018-05-24T21:30:10.420Z,4.40
2018-05-24T21:32:37.869Z,4.67
2018-05-24T21:35:05.336Z,3.93
2018-05-24T21:37:32.810Z,4.57
2018-05-24T21:40:00.362Z,4.20
2018-05-24T21:42:27.831Z,4.10
2018-05-24T21:44:55.386Z,4.07
2018-05-24T21:47:22.862Z,4.03
2018-05-24T21:49:50.297Z,3.67
2018-05-24T21:52:17.769Z,4.27
2018-05-24T21:54:45.232Z,4.30
2018-05-24T21:57:12.681Z,4.30
2018-05-24T21:59:40.125Z,4.10
2018-05-24T22:02:07.630Z,3.87
2018-05-24T22:04:35.053Z,3.83
2018-05-24T22:07:02.503Z,4.20
2018-05-24T22:09:30.713Z,3.83
2018-05-24T22:11:58.181Z,4.00
2018-05-24T22:14:25.673Z,3.90
2018-05-24T22:16:53.122Z,4.20
2018-05-24T22:19:20.556Z,3.60
2018-05-24T22:21:48.019Z,3.37
2018-05-24T22:24:15.461Z,4.30
2018-05-24T22:26:42.929Z,4.03
2018-05-24T22:29:10.385Z,3.90
2018-05-24T22:31:37.901Z,4.00
2018-05-24T22:34:05.362Z,3.83
2018-05-24T22:36:32.818Z,3.93
2018-05-24T22:39:00.383Z,3.60
2018-05-24T22:41:27.826Z,4.30
2018-05-24T22:43:55.296Z,3.80
2018-05-24T22:46:22.757Z,3.80
2018-05-24T22:48:50.212Z,3.60
2018-05-24T22:51:17.676Z,4.10
2018-05-24T22:53:45.133Z,3.50
2018-05-24T22:56:12.591Z,4.10
2018-05-24T22:58:40.049Z,3.50
2018-05-24T23:01:07.504Z,3.43
2018-05-24T23:03:35.245Z,3.87
2018-05-24T23:06:02.784Z,3.83
2018-05-24T23:08:30.341Z,4.07
2018-05-24T23:10:57.905Z,4.63
2018-05-24T23:13:25.374Z,4.43
2018-05-24T23:15:52.823Z,4.30
2018-05-24T23:18:20.263Z,3.77
2018-05-24T23:20:47.738Z,4.20
2018-05-24T23:23:15.187Z,4.50
2018-05-24T23:25:42.626Z,4.23
2018-05-24T23:28:10.089Z,4.47
2018-05-24T23:30:38.321Z,4.33
2018-05-24T23:33:05.793Z,4.13
2018-05-24T23:35:33.248Z,4.37
2018-05-24T23:38:00.697Z,4.17
2018-05-24T23:40:28.159Z,3.87
2018-05-24T23:42:55.611Z,3.83
2018-05-24T23:45:23.069Z,3.87
2018-05-24T23:47:50.538Z,3.77
2018-05-24T23:50:28.912Z,4.00
2018-05-24T23:52:57.142Z,3.90
2018-05-24T23:55:24.609Z,4.20
2018-05-24T23:57:52.051Z,3.77
